Weather reports worldwide

Advertisment
Inverness/Dalcross, United Kingdom (3059): temperature & dewpoint: 15.01.2020 23:00:00 - 21.01.2020 23:00:00 (GMT)Inverness/Dalcross, United Kingdom (3059): wind speed: 15.01.2020 23:00:00 - 21.01.2020 23:00:00 (GMT)Inverness/Dalcross, United Kingdom (3059): wind direction: 15.01.2020 23:00:00 - 21.01.2020 23:00:00 (GMT)Inverness/Dalcross, United Kingdom (3059): visibility: 15.01.2020 23:00:00 - 21.01.2020 23:00:00 (GMT)
Date & Time tt [°C] td [°C] ff [km/h] ff [kn] dd vv [km]
21.01.2020 23:00:00 10,0 8,0 18 10 SW 10
21.01.2020 22:00:00 10,0 9,0 18 10 SW 10
21.01.2020 21:00:00 10,0 8,0 16 9 SW 10
21.01.2020 20:00:00 10,0 8,0 11 6 SW 10
21.01.2020 19:00:00 9,0 9,0 8 4 W 10
21.01.2020 18:00:00 7,0 7,0 0 0 N 10
21.01.2020 17:00:00 8,0 7,0 0 0 N 10
21.01.2020 16:00:00 8,0 7,0 2 1 ENE 10
21.01.2020 15:00:00 8,0 7,0 8 4 NE 10
21.01.2020 14:00:00 10,0 9,0 9 5 W 10
21.01.2020 13:00:00 10,0 9,0 9 5 WSW 7
21.01.2020 12:00:00 10,0 9,0 15 8 SW 10
21.01.2020 11:00:00 10,0 9,0 9 5 WSW 10
21.01.2020 10:00:00 9,0 8,0 5 3 SW 10
21.01.2020 09:00:00 9,0 8,0 5 3 WSW 10
21.01.2020 08:00:00 9,0 8,0 5 3 SW 8
21.01.2020 07:00:00 9,0 8,0 13 7 SW 10
21.01.2020 06:00:00 9,0 8,0 11 6 SW 10
21.01.2020 05:00:00 10,0 8,0 11 6 SSW 10
21.01.2020 04:00:00 10,0 8,0 15 8 SW 10
21.01.2020 03:00:00 10,0 8,0 28 15 SW 10
21.01.2020 02:00:00 10,0 7,0 28 15 SSW 10
21.01.2020 01:00:00 10,0 7,0 29 16 SW 10
21.01.2020 00:00:00 10,0 7,0 34 18 SW 10
20.01.2020 23:00:00 9,0 7,0 34 18 SSW 10
20.01.2020 22:00:00 9,0 6,0 44 24 SW 10
20.01.2020 21:00:00 9,0 6,0 41 22 SW 10
20.01.2020 20:00:00 9,0 6,0 29 16 SSW 10
20.01.2020 19:00:00 9,0 6,0 46 25 SSW 10
20.01.2020 18:00:00 9,0 6,0 44 24 SSW 10
20.01.2020 17:00:00 9,0 6,0 48 26 SSW 10
20.01.2020 16:00:00 9,0 6,0 46 25 SSW 10
20.01.2020 15:00:00 10,0 6,0 42 23 SSW 10
20.01.2020 14:00:00 10,0 6,0 34 18 SSW 10
20.01.2020 13:00:00 10,0 5,0 31 17 SW 10
20.01.2020 12:00:00 9,0 5,0 50 27 SW 10
20.01.2020 11:00:00 9,0 5,0 52 28 SW 10
20.01.2020 10:00:00 9,0 5,0 46 25 SW 10
20.01.2020 09:00:00 8,0 5,0 31 17 SW 10
20.01.2020 08:00:00 8,0 5,0 34 18 SW 10
20.01.2020 07:00:00 9,0 5,0 29 16 SSW 10
20.01.2020 06:00:00 9,0 5,0 29 16 SSW 10
20.01.2020 05:00:00 9,0 5,0 42 23 SSW 10
20.01.2020 04:00:00 8,0 5,0 48 26 SSW 10
20.01.2020 03:00:00 8,0 5,0 24 13 SSW 10
20.01.2020 02:00:00 8,0 5,0 21 11 SSW 10
20.01.2020 01:00:00 8,0 5,0 39 21 SSW 10
20.01.2020 00:00:00 8,0 5,0 34 18 SSW 10
19.01.2020 23:00:00 8,0 5,0 31 17 SSW 10
19.01.2020 22:00:00 8,0 4,0 37 20 SW 10
19.01.2020 21:00:00 8,0 4,0 52 28 SW 10
19.01.2020 20:00:00 8,0 4,0 54 29 SW 10
19.01.2020 19:00:00 8,0 4,0 39 21 SW 10
19.01.2020 18:00:00 8,0 3,0 42 23 SSW 10
19.01.2020 17:00:00 7,0 3,0 46 25 SW 10
19.01.2020 16:00:00 7,0 2,0 46 25 SW 10
19.01.2020 15:00:00 7,0 1,0 57 31 SW 10
19.01.2020 14:00:00 7,0 1,0 48 26 SW 10
19.01.2020 13:00:00 7,0 1,0 35 19 SSW 10
19.01.2020 12:00:00 7,0 2,0 37 20 SSW 10
19.01.2020 11:00:00 7,0 2,0 39 21 SSW 10
19.01.2020 10:00:00 6,0 3,0 34 18 SSW 10
19.01.2020 09:00:00 5,0 2,0 18 10 SW 10
19.01.2020 08:00:00 3,0 1,0 11 6 SW 10
19.01.2020 07:00:00 4,0 1,0 15 8 SSW 10
19.01.2020 06:00:00 3,0 0,0 11 6 SSW 10
19.01.2020 05:00:00 3,0 0,0 16 9 SSW 10
19.01.2020 04:00:00 2,0 0,0 28 15 SW 10
19.01.2020 03:00:00 2,0 -1,0 15 8 SSW 10
19.01.2020 02:00:00 1,0 -1,0 13 7 SW 10
19.01.2020 01:00:00 2,0 -1,0 13 7 SSW 10
19.01.2020 00:00:00 0,0 -2,0 5 3 WSW 10
18.01.2020 23:00:00 1,0 -2,0 0 0 N 10
18.01.2020 22:00:00 2,0 0,0 16 9 SW 10
18.01.2020 21:00:00 2,0 0,0 18 10 SW 10
18.01.2020 20:00:00 2,0 -1,0 11 6 SW 10
18.01.2020 19:00:00 3,0 0,0 18 10 SW 10
18.01.2020 18:00:00 4,0 0,0 24 13 SSW 10
18.01.2020 17:00:00 3,0 0,0 15 8 SSW 10
18.01.2020 16:00:00 3,0 0,0 5 3 - 10
18.01.2020 15:00:00 5,0 1,0 16 9 WSW 10
18.01.2020 14:00:00 5,0 2,0 15 8 SW 10
18.01.2020 13:00:00 5,0 2,0 22 12 WSW 10
18.01.2020 12:00:00 4,0 2,0 21 11 SW 10
18.01.2020 11:00:00 3,0 2,0 21 11 SSW 10
18.01.2020 10:00:00 3,0 1,0 21 11 SW 10
18.01.2020 09:00:00 3,0 1,0 22 12 WSW 8
18.01.2020 08:00:00 3,0 0,0 21 11 SW 10
18.01.2020 07:00:00 2,0 1,0 22 12 SW 10
18.01.2020 06:00:00 2,0 1,0 26 14 SW 10
18.01.2020 05:00:00 4,0 1,0 31 17 WSW 10
18.01.2020 04:00:00 3,0 0,0 22 12 WSW 10
18.01.2020 03:00:00 3,0 0,0 22 12 SW 10
18.01.2020 02:00:00 2,0 0,0 22 12 SW 10
18.01.2020 01:00:00 3,0 1,0 29 16 WSW 10
18.01.2020 00:00:00 2,0 0,0 18 10 SW 10
17.01.2020 23:00:00 3,0 1,0 29 16 SW 10
17.01.2020 22:00:00 4,0 1,0 24 13 WSW 10
17.01.2020 21:00:00 3,0 1,0 16 9 SW 10
17.01.2020 20:00:00 3,0 0,0 15 8 SW 10
17.01.2020 19:00:00 4,0 1,0 21 11 SW 10
17.01.2020 18:00:00 5,0 2,0 21 11 SW 10
17.01.2020 17:00:00 5,0 2,0 29 16 WSW 10
17.01.2020 16:00:00 6,0 2,0 24 13 SW 10
17.01.2020 15:00:00 6,0 2,0 22 12 SSW 10
17.01.2020 14:00:00 6,0 2,0 21 11 SSW 10
17.01.2020 13:00:00 6,0 2,0 28 15 SSW 10
17.01.2020 12:00:00 6,0 3,0 26 14 SSW 10
17.01.2020 11:00:00 6,0 2,0 37 20 SSW 10
17.01.2020 10:00:00 5,0 1,0 37 20 SSW 10
17.01.2020 09:00:00 5,0 1,0 31 17 SSW 10
17.01.2020 08:00:00 5,0 0,0 31 17 SSW 10
17.01.2020 07:00:00 5,0 1,0 31 17 SSW 10
17.01.2020 06:00:00 6,0 1,0 31 17 SSW 10
17.01.2020 05:00:00 6,0 1,0 24 13 SSW 10
17.01.2020 04:00:00 5,0 2,0 26 14 SSW 10
17.01.2020 03:00:00 6,0 2,0 34 18 SSW 10
17.01.2020 02:00:00 7,0 1,0 31 17 SSW 10
17.01.2020 01:00:00 7,0 2,0 31 17 SSW 10
17.01.2020 00:00:00 7,0 2,0 29 16 SSW 10
16.01.2020 23:00:00 7,0 2,0 28 15 SSW 10
16.01.2020 22:00:00 8,0 2,0 35 19 SSW 10
16.01.2020 21:00:00 8,0 5,0 26 14 SW 10
16.01.2020 20:00:00 6,0 3,0 11 6 SW 10
16.01.2020 19:00:00 8,0 4,0 9 5 W 10
16.01.2020 18:00:00 7,0 3,0 4 2 - 10
16.01.2020 17:00:00 8,0 3,0 11 6 NNE 10
16.01.2020 16:00:00 8,0 3,0 13 7 E 10
16.01.2020 15:00:00 9,0 3,0 5 3 - 10
16.01.2020 14:00:00 9,0 4,0 5 3 - 10
16.01.2020 13:00:00 9,0 5,0 2 1 - 10
16.01.2020 12:00:00 9,0 4,0 8 4 SE 10
16.01.2020 11:00:00 8,0 4,0 18 10 S 10
16.01.2020 10:00:00 7,0 4,0 13 7 ESE 10
16.01.2020 09:00:00 4,0 1,0 8 4 E 10
16.01.2020 08:00:00 3,0 1,0 2 1 - 10
16.01.2020 07:00:00 3,0 1,0 11 6 WSW 10
16.01.2020 06:00:00 4,0 1,0 11 6 SW 10
16.01.2020 05:00:00 5,0 2,0 15 8 SSW 10
16.01.2020 04:00:00 5,0 2,0 34 18 SSW 10
16.01.2020 03:00:00 5,0 2,0 29 16 SSW 10
16.01.2020 02:00:00 5,0 2,0 37 20 SSW 10
16.01.2020 01:00:00 5,0 2,0 37 20 SSW 10
16.01.2020 00:00:00 5,0 2,0 35 19 SSW 10
15.01.2020 23:00:00 5,0 3,0 34 18 SSW 10

tt = temperature
td = dewpoint
ff = wind speed
dd = wind direction
vv = visibility

Next stations